Airfield :
LOGIN :

Register | Disclaimer

   EN    FR    IT 

 










Legend :    VFR   Marginal VFR   IFR   Intensive IFR   Very Intensive IFR
Visi :
Ceiling :
>= 8 km
>= 3000ft
5 to 8 km
1000 to 3000 ft
1500m to 5 km
500 to 1000 ft
800 to 1500m
200 to 500 ft
< 800m
< 200 ft
Symbols :   Thunderstorms  Fog  Heavy snow  Heavy precipitations  Wind > 20 kt
SIGMETs :     Misc.  Thunderstorms  Icing  Turbulence  Mountain Waves  Volcanic Ashes







- Airport Elevation : 1306 ft
- IATA code : ACH


LSZR - Alten Rhein

CURRENT METAR :
  • 211020Z 30008KT 9999 BKN019 BKN060 04/01 Q1016 NOSIG RMK F

EXPIRED METARs :
  • 210950Z 31009KT 9999 SCT018 BKN023 04/01 Q1015 NOSIG RMK E
  • 210920Z 31011KT 9999 SCT016 BKN021 04/01 Q1014 NOSIG RMK D
  • 210850Z 30013KT 9999 BKN020 04/02 Q1013 NOSIG RMK C
  • 210820Z 29015KT 9999 BKN014 BKN042 04/02 Q1012 NOSIG RMK B
  • 210750Z 29015KT 9999 BKN050 BKN070 05/02 Q1011 NOSIG RMK A

TAF TAF LSZR
Valid from the 21 at 09:00 until the 21 at 18:00 UTC


210825Z 2109/2118 29009KT 9999 BKN050
PROB30
TEMPO 2109/2112 SHRA
ATIS : +41 71 858 51 66
No reported NOTAMs for that airfield.



MET'MAP, your aeronautical weather chart ! - Copyright ORBIFLY December 2007 - Disclaimer

ORBIFLY MET'MAP TEAM :

Programming & Development : Alexandra Zaïnal
Concept & Development : Baudouin d'Aumeries
Co-Development & Prog : Marc-Olivier Méhu
Technical & hardware support : Manuel Goepfert

Contact : metmap@orbifly.com




SOURCES & CREDITS :

   NOAA